Time;durP1;ratioP1;P1;durP2;ratioP2;P2;SDS_P1;SDS_P2;PMS_P1;PMS_P2;Temp;Humidity;BMP_temperature;BMP_pressure;BME280_temperature;BME280_humidity;BME280_pressure;Samples;Min_cycle;Max_cycle;Signal;HPM_P1;HPM_P2
2022/04/11 00:00:52;;;;;;;14.63;8.50;;;;;0.30;94248.00;;;;7399296;19;20141;-81
2022/04/11 00:03:28;;;;;;;13.67;8.80;;;;;0.60;94244.00;;;;7399333;19;20169;-81
2022/04/11 00:06:03;;;;;;;25.43;9.07;;;;;0.70;94243.00;;;;7399795;19;20128;-82
2022/04/11 00:08:44;;;;;;;12.70;8.00;;;;;0.90;94245.00;;;;7399157;19;20583;-82
2022/04/11 00:11:12;;;;;;;17.63;8.90;;;;;1.00;94240.00;;;;7398461;19;20129;-82
2022/04/11 00:13:45;;;;;;;10.30;7.37;;;;;1.00;94236.00;;;;7399501;19;20140;-82
2022/04/11 00:16:13;;;;;;;11.13;7.20;;;;;1.00;94237.00;;;;7401095;19;20592;-83
2022/04/11 00:18:41;;;;;;;11.83;6.50;;;;;0.80;94233.00;;;;7398644;19;20909;-82
2022/04/11 00:21:19;;;;;;;9.70;6.03;;;;;0.70;94228.00;;;;7398421;19;20594;-82
2022/04/11 00:23:49;;;;;;;8.90;5.60;;;;;0.50;94229.00;;;;7399137;19;20159;-82
2022/04/11 00:26:23;;;;;;;8.97;4.90;;;;;0.50;94223.00;;;;7401857;19;20136;-82
2022/04/11 00:28:53;;;;;;;8.17;5.40;;;;;0.80;94231.00;;;;7398860;19;20125;-83
2022/04/11 00:31:20;;;;;;;7.07;4.90;;;;;0.70;94215.00;;;;7397193;19;20124;-81
2022/04/11 00:33:54;;;;;;;8.80;5.67;;;;;0.70;94214.00;;;;7394819;19;20124;-81
2022/04/11 00:36:24;;;;;;;9.20;5.80;;;;;1.00;94209.00;;;;7395288;19;20145;-81
2022/04/11 00:38:53;;;;;;;10.40;5.57;;;;;1.00;94200.00;;;;7397735;19;20132;-81
2022/04/11 00:41:26;;;;;;;12.67;5.57;;;;;0.90;94198.00;;;;7402798;19;20132;-81
2022/04/11 00:44:01;;;;;;;7.30;5.20;;;;;0.90;94200.00;;;;7397312;19;20148;-81
2022/04/11 00:46:37;;;;;;;8.53;4.87;;;;;0.80;94205.00;;;;7396745;19;20603;-81
2022/04/11 00:49:05;;;;;;;7.97;5.00;;;;;0.90;94201.00;;;;7396814;19;20141;-83
2022/04/11 00:51:35;;;;;;;10.40;5.23;;;;;1.20;94198.00;;;;7397007;19;20137;-81
2022/04/11 00:54:09;;;;;;;6.33;4.70;;;;;1.30;94201.00;;;;7400259;19;20117;-81
2022/04/11 00:56:38;;;;;;;6.90;4.80;;;;;1.20;94192.00;;;;7396600;19;20538;-81
2022/04/11 00:59:05;;;;;;;5.77;4.80;;;;;1.30;94187.00;;;;7396113;19;20140;-81
2022/04/11 01:01:43;;;;;;;8.93;4.90;;;;;1.20;94192.00;;;;7397928;19;20136;-82
2022/04/11 01:04:23;;;;;;;6.27;4.40;;;;;1.00;94191.00;;;;7396461;19;20204;-82
2022/04/11 01:07:07;;;;;;;5.67;4.53;;;;;1.00;94187.00;;;;7395329;19;20177;-82
2022/04/11 01:09:35;;;;;;;9.53;4.57;;;;;0.90;94192.00;;;;7398450;19;20180;-81
2022/04/11 01:12:16;;;;;;;11.10;4.90;;;;;0.90;94191.00;;;;7399329;19;20139;-80
2022/04/11 01:14:43;;;;;;;6.43;4.57;;;;;0.90;94195.00;;;;7398275;19;20144;-81
2022/04/11 01:17:17;;;;;;;6.20;4.70;;;;;1.00;94188.00;;;;7396730;19;20212;-82
2022/04/11 01:19:45;;;;;;;8.20;4.87;;;;;0.90;94193.00;;;;7396100;19;20222;-82
2022/04/11 01:22:12;;;;;;;7.17;4.87;;;;;0.90;94195.00;;;;7397363;19;20612;-80
2022/04/11 01:24:47;;;;;;;7.77;5.13;;;;;1.00;94180.00;;;;7396233;19;20145;-81
2022/04/11 01:27:16;;;;;;;6.23;4.20;;;;;1.00;94184.00;;;;7394332;19;20211;-82
2022/04/11 01:29:46;;;;;;;5.67;4.90;;;;;0.90;94176.00;;;;7394943;19;20846;-80
2022/04/11 01:32:20;;;;;;;6.50;4.40;;;;;1.00;94172.00;;;;7394025;19;20136;-81
2022/04/11 01:34:48;;;;;;;5.57;4.10;;;;;1.10;94176.00;;;;7394383;19;20166;-81
2022/04/11 01:37:23;;;;;;;6.90;4.60;;;;;1.30;94177.00;;;;7398242;19;20177;-82
2022/04/11 01:39:57;;;;;;;6.73;4.43;;;;;1.30;94170.00;;;;7393103;19;20144;-82
2022/04/11 01:42:25;;;;;;;8.17;4.50;;;;;1.30;94163.00;;;;7394904;19;20646;-81
2022/04/11 01:44:55;;;;;;;9.50;4.77;;;;;1.20;94153.00;;;;7398036;19;20212;-81
2022/04/11 01:47:29;;;;;;;6.23;4.20;;;;;1.20;94159.00;;;;7395303;19;20144;-82
2022/04/11 01:49:59;;;;;;;5.87;4.13;;;;;1.10;94154.00;;;;7396232;19;20637;-81
2022/04/11 01:52:34;;;;;;;7.93;4.43;;;;;1.10;94151.00;;;;7401847;19;20153;-81
2022/04/11 01:55:11;;;;;;;7.27;4.50;;;;;1.00;94150.00;;;;7397328;19;20128;-81
2022/04/11 01:57:44;;;;;;;7.50;4.47;;;;;1.00;94154.00;;;;7396264;19;20589;-82
2022/04/11 02:00:18;;;;;;;5.37;4.10;;;;;1.10;94152.00;;;;7397313;19;20534;-82
2022/04/11 02:02:48;;;;;;;6.47;4.60;;;;;1.10;94149.00;;;;7400058;19;20143;-81
2022/04/11 02:05:15;;;;;;;7.00;4.50;;;;;1.10;94156.00;;;;7398135;19;20125;-83
2022/04/11 02:07:57;;;;;;;6.87;4.53;;;;;1.20;94144.00;;;;7399196;19;20176;-83
2022/04/11 02:10:27;;;;;;;6.93;4.60;;;;;1.20;94148.00;;;;7392832;19;20168;-82
2022/04/11 02:13:02;;;;;;;6.70;4.73;;;;;1.30;94140.00;;;;7397279;19;20606;-83
2022/04/11 02:15:30;;;;;;;7.70;5.00;;;;;1.30;94142.00;;;;7398071;19;20129;-82
2022/04/11 02:18:02;;;;;;;5.67;5.07;;;;;1.30;94139.00;;;;7396232;19;20139;-83
2022/04/11 02:20:36;;;;;;;10.00;5.30;;;;;1.20;94132.00;;;;7397384;19;20144;-82
2022/04/11 02:23:05;;;;;;;6.80;5.13;;;;;1.10;94130.00;;;;7397840;19;20127;-83
2022/04/11 02:25:40;;;;;;;7.80;5.57;;;;;1.10;94123.00;;;;7396031;19;20113;-82
2022/04/11 02:28:15;;;;;;;10.50;6.10;;;;;1.10;94115.00;;;;7397994;19;20536;-83
2022/04/11 02:30:43;;;;;;;10.17;5.40;;;;;1.00;94109.00;;;;7398703;19;20133;-82
2022/04/11 02:33:10;;;;;;;7.17;5.60;;;;;1.10;94118.00;;;;7401791;19;20535;-82
2022/04/11 02:35:44;;;;;;;7.37;5.87;;;;;1.00;94113.00;;;;7401671;19;20603;-83
2022/04/11 02:38:14;;;;;;;9.53;5.90;;;;;1.00;94112.00;;;;7403267;19;20133;-82
2022/04/11 02:40:41;;;;;;;7.77;5.50;;;;;1.10;94105.00;;;;7400967;19;20128;-83
2022/04/11 02:43:15;;;;;;;9.17;6.27;;;;;1.10;94098.00;;;;7396203;19;20153;-83
2022/04/11 02:45:43;;;;;;;11.07;6.67;;;;;1.00;94098.00;;;;7397032;19;20141;-82
2022/04/11 02:48:11;;;;;;;8.77;6.13;;;;;1.20;94098.00;;;;7397887;19;20135;-83
2022/04/11 02:50:44;;;;;;;8.77;6.17;;;;;1.20;94103.00;;;;7402773;19;20170;-82
2022/04/11 02:53:15;;;;;;;9.53;6.60;;;;;1.10;94103.00;;;;7403445;19;20607;-84
2022/04/11 02:55:45;;;;;;;9.07;6.90;;;;;1.20;94089.00;;;;7399090;19;20458;-82
2022/04/11 02:58:18;;;;;;;11.23;7.33;;;;;1.20;94083.00;;;;7397323;19;20128;-82
2022/04/11 03:00:47;;;;;;;11.03;7.00;;;;;1.10;94085.00;;;;7400252;19;20133;-82
2022/04/11 03:03:14;;;;;;;13.90;6.90;;;;;1.10;94085.00;;;;7403758;19;20133;-82
2022/04/11 03:05:53;;;;;;;10.20;6.80;;;;;1.00;94074.00;;;;7408558;19;20163;-83
2022/04/11 03:08:28;;;;;;;10.17;7.23;;;;;0.90;94077.00;;;;7409100;19;20173;-83
2022/04/11 03:11:04;;;;;;;10.07;6.33;;;;;0.70;94070.00;;;;7406202;19;20143;-83
2022/04/11 03:13:33;;;;;;;9.27;6.27;;;;;0.80;94075.00;;;;7401341;19;20200;-84
2022/04/11 03:16:00;;;;;;;11.17;6.90;;;;;0.80;94078.00;;;;7404235;19;20137;-82
2022/04/11 03:18:35;;;;;;;9.87;6.87;;;;;0.80;94073.00;;;;7406774;19;20145;-84
2022/04/11 03:21:05;;;;;;;11.43;6.77;;;;;0.90;94071.00;;;;7403170;19;20140;-83
2022/04/11 03:23:34;;;;;;;9.27;6.10;;;;;0.90;94068.00;;;;7420949;19;20141;-83
2022/04/11 03:26:08;;;;;;;8.37;6.43;;;;;0.90;94064.00;;;;7422847;19;20173;-82
2022/04/11 03:28:41;;;;;;;10.77;7.30;;;;;0.80;94060.00;;;;7427529;19;20145;-85
2022/04/11 03:31:08;;;;;;;10.57;6.67;;;;;0.80;94060.00;;;;7413177;19;20140;-84
2022/04/11 03:33:42;;;;;;;11.03;7.03;;;;;0.70;94063.00;;;;7413964;19;20588;-83
2022/04/11 03:36:13;;;;;;;10.87;6.97;;;;;0.70;94052.00;;;;7415453;19;20141;-81
2022/04/11 03:38:40;;;;;;;10.70;6.17;;;;;0.70;94055.00;;;;7407141;19;20600;-84
2022/04/11 03:41:14;;;;;;;10.83;7.03;;;;;0.50;94056.00;;;;7413768;19;20161;-83
2022/04/11 03:43:44;;;;;;;10.60;6.67;;;;;0.50;94052.00;;;;7415069;19;20265;-82
2022/04/11 03:46:13;;;;;;;9.93;6.63;;;;;0.50;94054.00;;;;7411567;19;20645;-84
2022/04/11 03:48:47;;;;;;;10.43;7.20;;;;;0.40;94060.00;;;;7405848;19;20170;-82
2022/04/11 03:51:16;;;;;;;11.53;6.93;;;;;0.30;94048.00;;;;7400038;19;20117;-82
2022/04/11 03:53:44;;;;;;;9.50;6.93;;;;;0.30;94053.00;;;;7400257;19;20125;-80
2022/04/11 03:56:17;;;;;;;11.37;7.70;;;;;0.50;94048.00;;;;7401639;19;20149;-83
2022/04/11 03:58:48;;;;;;;11.33;7.57;;;;;0.60;94050.00;;;;7401331;19;20189;-82
2022/04/11 04:01:15;;;;;;;13.67;8.43;;;;;0.60;94040.00;;;;7402913;19;20146;-81
2022/04/11 04:03:50;;;;;;;12.63;7.00;;;;;0.30;94038.00;;;;7400319;19;20203;-83
2022/04/11 04:06:20;;;;;;;12.53;7.33;;;;;0.10;94041.00;;;;7401242;19;20131;-81
2022/04/11 04:08:49;;;;;;;8.87;7.73;;;;;0.30;94046.00;;;;7396588;19;20153;-81
2022/04/11 04:11:23;;;;;;;11.23;7.87;;;;;0.30;94047.00;;;;7398100;19;20153;-81
2022/04/11 04:13:51;;;;;;;11.13;8.00;;;;;0.40;94064.00;;;;7404824;19;20631;-83
2022/04/11 04:16:21;;;;;;;10.13;7.40;;;;;0.40;94060.00;;;;7400022;19;20617;-82
2022/04/11 04:18:55;;;;;;;10.70;8.40;;;;;0.30;94055.00;;;;7400471;19;20188;-82
2022/04/11 04:21:23;;;;;;;11.00;8.03;;;;;0.30;94057.00;;;;7405548;19;20158;-82
2022/04/11 04:23:51;;;;;;;12.03;7.50;;;;;0.30;94059.00;;;;7402062;19;20147;-82
2022/04/11 04:26:27;;;;;;;12.60;7.63;;;;;0.20;94067.00;;;;7401798;19;20607;-82
2022/04/11 04:28:55;;;;;;;11.20;7.50;;;;;0.30;94061.00;;;;7397567;19;20482;-82
2022/04/11 04:31:23;;;;;;;11.90;7.87;;;;;0.40;94058.00;;;;7400746;19;20181;-82
2022/04/11 04:33:56;;;;;;;9.27;7.93;;;;;0.30;94051.00;;;;7397677;19;20597;-82
2022/04/11 04:36:24;;;;;;;12.13;7.60;;;;;0.30;94056.00;;;;7399162;19;20648;-81
2022/04/11 04:38:51;;;;;;;10.30;7.53;;;;;0.30;94053.00;;;;7401261;19;20169;-82
2022/04/11 04:41:25;;;;;;;15.20;8.20;;;;;0.40;94052.00;;;;7400214;19;20515;-81
2022/04/11 04:43:58;;;;;;;13.23;7.80;;;;;0.30;94043.00;;;;7399274;19;20166;-82
2022/04/11 04:46:26;;;;;;;10.83;7.80;;;;;0.30;94045.00;;;;7399226;19;20500;-81
2022/04/11 04:49:08;;;;;;;13.57;7.63;;;;;0.20;94044.00;;;;7399282;19;20261;-81
2022/04/11 04:51:36;;;;;;;17.70;7.93;;;;;0.20;94047.00;;;;7397996;19;20599;-81
2022/04/11 04:54:12;;;;;;;10.20;7.47;;;;;0.30;94049.00;;;;7392440;19;20144;-80
2022/04/11 04:56:40;;;;;;;12.93;7.57;;;;;0.30;94036.00;;;;7396768;19;20140;-80
2022/04/11 04:59:07;;;;;;;11.33;7.00;;;;;0.40;94053.00;;;;7397684;19;20132;-81
2022/04/11 05:01:41;;;;;;;12.30;7.03;;;;;0.30;94046.00;;;;7397841;19;20160;-79
2022/04/11 05:04:14;;;;;;;10.27;6.80;;;;;0.40;94041.00;;;;7394965;19;20140;-81
2022/04/11 05:07:02;;;;;;;10.90;7.00;;;;;0.40;94045.00;;;;7393415;19;20147;-78
2022/04/11 05:09:36;;;;;;;10.67;7.00;;;;;0.50;94040.00;;;;7391789;19;20667;-80
2022/04/11 05:12:10;;;;;;;8.93;7.00;;;;;0.50;94035.00;;;;7392108;19;20596;-80
2022/04/11 05:14:38;;;;;;;9.87;6.77;;;;;0.50;94035.00;;;;7391594;19;20157;-80
2022/04/11 05:17:05;;;;;;;9.80;6.67;;;;;0.50;94025.00;;;;7393762;19;20141;-80
2022/04/11 05:19:40;;;;;;;9.03;6.77;;;;;0.70;94026.00;;;;7393582;19;20612;-79
2022/04/11 05:22:08;;;;;;;8.50;6.90;;;;;0.70;94023.00;;;;7393995;19;20141;-79
2022/04/11 05:24:35;;;;;;;13.90;7.03;;;;;0.90;94025.00;;;;7392414;19;20637;-80
2022/04/11 05:27:11;;;;;;;10.67;7.30;;;;;0.90;94010.00;;;;7392748;19;20140;-80
2022/04/11 05:29:39;;;;;;;11.20;6.60;;;;;1.00;94025.00;;;;7394321;19;20161;-81
2022/04/11 05:32:08;;;;;;;11.27;7.53;;;;;1.10;94032.00;;;;7392266;19;20128;-81
2022/04/11 05:34:47;;;;;;;10.00;6.90;;;;;1.20;94024.00;;;;7396020;19;20160;-82
2022/04/11 05:37:15;;;;;;;8.47;6.77;;;;;1.30;94024.00;;;;7399154;19;21107;-81
2022/04/11 05:39:49;;;;;;;8.13;6.77;;;;;1.30;94017.00;;;;7400479;19;20143;-83
2022/04/11 05:42:17;;;;;;;8.27;6.30;;;;;1.40;94031.00;;;;7402004;19;20145;-80
2022/04/11 05:44:47;;;;;;;13.50;6.60;;;;;1.50;94029.00;;;;7391299;19;20649;-80
2022/04/11 05:47:20;;;;;;;10.23;6.20;;;;;1.80;94031.00;;;;7392458;19;20156;-80
2022/04/11 05:49:53;;;;;;;10.07;6.70;;;;;1.90;94032.00;;;;7394199;19;20145;-80
2022/04/11 05:52:30;;;;;;;10.43;6.33;;;;;1.90;94040.00;;;;7390215;19;20140;-81
2022/04/11 05:55:00;;;;;;;15.43;6.20;;;;;1.90;94038.00;;;;7395000;19;20487;-80
2022/04/11 05:57:37;;;;;;;10.43;6.40;;;;;2.00;94035.00;;;;7396065;19;20121;-81
2022/04/11 06:00:08;;;;;;;6.33;4.97;;;;;2.20;94041.00;;;;7395388;19;20144;-82
2022/04/11 06:02:41;;;;;;;9.07;5.63;;;;;2.30;94038.00;;;;7393048;19;20140;-82
2022/04/11 06:05:09;;;;;;;8.77;5.73;;;;;2.40;94036.00;;;;7391725;19;20212;-81
2022/04/11 06:07:38;;;;;;;8.93;5.80;;;;;2.50;94039.00;;;;7391075;19;20152;-81
2022/04/11 06:10:18;;;;;;;8.73;6.10;;;;;2.60;94041.00;;;;7390507;19;20149;-79
2022/04/11 06:12:50;;;;;;;6.60;5.67;;;;;2.70;94029.00;;;;7390492;19;20622;-81
2022/04/11 06:15:24;;;;;;;10.87;5.80;;;;;2.80;94035.00;;;;7391889;19;20124;-79
2022/04/11 06:17:54;;;;;;;7.37;5.43;;;;;3.00;94034.00;;;;7392340;19;20162;-79
2022/04/11 06:20:21;;;;;;;8.53;5.47;;;;;3.30;94041.00;;;;7391737;19;20617;-81
2022/04/11 06:22:55;;;;;;;10.10;5.93;;;;;3.70;94038.00;;;;7392818;19;20141;-82
2022/04/11 06:25:23;;;;;;;7.23;5.23;;;;;3.90;94032.00;;;;7393263;19;20140;-79
2022/04/11 06:27:50;;;;;;;10.90;5.73;;;;;4.10;94041.00;;;;7394723;19;20630;-82
2022/04/11 06:30:27;;;;;;;8.43;5.93;;;;;4.30;94034.00;;;;7393644;19;20627;-80
2022/04/11 06:32:55;;;;;;;8.00;5.20;;;;;4.70;94038.00;;;;7390235;19;20228;-81
2022/04/11 06:35:22;;;;;;;8.43;4.87;;;;;4.70;94038.00;;;;7393264;19;20145;-81
2022/04/11 06:37:56;;;;;;;5.77;5.17;;;;;5.00;94019.00;;;;7393341;19;20129;-80
2022/04/11 06:40:24;;;;;;;7.87;5.17;;;;;5.20;94026.00;;;;7393650;19;20145;-81
2022/04/11 06:42:51;;;;;;;8.70;4.93;;;;;5.40;94031.00;;;;7403582;19;20125;-80
2022/04/11 06:45:25;;;;;;;5.93;4.70;;;;;6.10;94023.00;;;;7397493;19;20133;-79
2022/04/11 06:47:53;;;;;;;9.23;4.90;;;;;6.10;94023.00;;;;7395336;19;20161;-81
2022/04/11 06:50:21;;;;;;;8.40;4.83;;;;;6.20;94032.00;;;;7403797;19;20160;-81
2022/04/11 06:52:54;;;;;;;6.30;4.40;;;;;6.20;94030.00;;;;7393166;19;20137;-79
2022/04/11 06:55:22;;;;;;;7.93;5.10;;;;;6.40;94031.00;;;;7399074;19;20212;-79
2022/04/11 06:57:52;;;;;;;5.70;4.63;;;;;6.80;94027.00;;;;7406421;19;20154;-81
2022/04/11 07:00:30;;;;;;;5.87;4.30;;;;;6.50;94031.00;;;;7403341;19;20150;-79
2022/04/11 07:03:01;;;;;;;5.70;3.73;;;;;6.90;94029.00;;;;7405297;19;20128;-79
2022/04/11 07:05:37;;;;;;;7.47;4.10;;;;;7.00;94029.00;;;;7405409;19;20171;-81
2022/04/11 07:08:27;;;;;;;5.80;3.63;;;;;7.40;94037.00;;;;7410177;19;20148;-85
2022/04/11 07:11:02;;;;;;;6.13;3.83;;;;;7.50;94025.00;;;;7417756;19;20144;-83
2022/04/11 07:13:32;;;;;;;4.87;3.43;;;;;7.60;94029.00;;;;7416669;19;20140;-78
2022/04/11 07:16:02;;;;;;;5.17;3.90;;;;;8.30;94034.00;;;;7396061;19;20129;-78
2022/04/11 07:18:36;;;;;;;7.93;3.93;;;;;8.20;94024.00;;;;7391835;19;20144;-79
2022/04/11 07:21:03;;;;;;;6.47;3.97;;;;;8.70;94032.00;;;;7389842;19;20133;-79
2022/04/11 07:23:31;;;;;;;3.80;3.13;;;;;9.10;94034.00;;;;7394262;19;20117;-80
2022/04/11 07:26:08;;;;;;;4.57;3.13;;;;;8.50;94031.00;;;;7402562;19;20137;-83
2022/04/11 07:28:38;;;;;;;6.33;3.43;;;;;9.00;94038.00;;;;7392287;19;20132;-78
2022/04/11 07:31:12;;;;;;;6.87;3.20;;;;;8.70;94030.00;;;;7390549;19;20145;-80
2022/04/11 07:33:42;;;;;;;4.07;3.10;;;;;8.70;94034.00;;;;7387842;19;20125;-78
2022/04/11 07:36:10;;;;;;;5.03;3.10;;;;;8.60;94041.00;;;;7387825;19;20137;-81
2022/04/11 07:38:43;;;;;;;5.70;3.17;;;;;8.90;94041.00;;;;7389635;19;20129;-81
2022/04/11 07:41:11;;;;;;;5.80;3.47;;;;;8.90;94040.00;;;;7389844;19;20512;-82
2022/04/11 07:43:39;;;;;;;4.20;3.10;;;;;8.30;94041.00;;;;7391955;19;20121;-81
2022/04/11 07:46:12;;;;;;;5.13;3.40;;;;;8.50;94053.00;;;;7389282;19;20137;-81
2022/04/11 07:48:40;;;;;;;4.97;3.13;;;;;8.70;94054.00;;;;7388848;19;20711;-78
2022/04/11 07:51:11;;;;;;;4.53;2.90;;;;;8.80;94054.00;;;;7389304;19;20926;-78
2022/04/11 07:53:49;;;;;;;3.17;2.87;;;;;8.90;94053.00;;;;7390340;19;20179;-79
2022/04/11 07:56:17;;;;;;;5.07;3.47;;;;;8.60;94053.00;;;;7388624;19;20614;-79
2022/04/11 07:58:55;;;;;;;3.47;2.73;;;;;9.10;94053.00;;;;7389208;19;20157;-79
2022/04/11 08:01:24;;;;;;;5.30;3.17;;;;;9.60;94045.00;;;;7389052;19;20137;-79
2022/04/11 08:03:51;;;;;;;4.93;2.77;;;;;10.10;94059.00;;;;7389033;19;20141;-79
2022/04/11 08:06:30;;;;;;;4.65;3.67;;;;;10.20;94052.00;;;;7388368;19;20123;-77
2022/04/11 08:09:04;;;;;;;3.80;3.00;;;;;11.00;94043.00;;;;7387690;19;20192;-79
2022/04/11 08:11:38;;;;;;;4.25;2.83;;;;;10.90;94052.00;;;;7394898;19;20161;-77
2022/04/11 08:14:06;;;;;;;4.07;2.92;;;;;11.10;94055.00;;;;7396507;19;20142;-79
2022/04/11 08:16:34;;;;;;;4.00;2.67;;;;;11.10;94050.00;;;;7394419;19;20166;-77
2022/04/11 08:19:07;;;;;;;6.35;2.70;;;;;10.70;94053.00;;;;7395151;19;20627;-76
2022/04/11 08:21:37;;;;;;;4.57;2.92;;;;;11.20;94055.00;;;;7396309;19;20504;-76
2022/04/11 08:24:05;;;;;;;3.05;2.75;;;;;11.20;94046.00;;;;7394891;19;20137;-77
2022/04/11 08:26:42;;;;;;;3.60;2.60;;;;;11.30;94047.00;;;;7394651;19;20160;-79
2022/04/11 08:29:10;;;;;;;4.03;2.90;;;;;11.40;94060.00;;;;7395699;19;20155;-78
2022/04/11 08:31:38;;;;;;;4.90;2.58;;;;;11.70;94055.00;;;;7394973;19;20232;-79
2022/04/11 08:34:12;;;;;;;3.67;2.45;;;;;12.30;94056.00;;;;7394612;19;20141;-78
2022/04/11 08:36:43;;;;;;;3.17;2.33;;;;;12.30;94059.00;;;;7394961;19;20150;-81
2022/04/11 08:39:14;;;;;;;4.25;2.65;;;;;12.50;94063.00;;;;7394822;19;20141;-81
2022/04/11 08:41:49;;;;;;;3.90;2.45;;;;;12.10;94051.00;;;;7395849;19;20135;-80
2022/04/11 08:44:18;;;;;;;2.97;2.30;;;;;12.10;94053.00;;;;7396480;19;20145;-81
2022/04/11 08:46:48;;;;;;;2.80;2.30;;;;;12.60;94060.00;;;;7394599;19;20718;-80
2022/04/11 08:49:22;;;;;;;6.25;2.15;;;;;12.10;94041.00;;;;7396784;19;20136;-80
2022/04/11 08:51:50;;;;;;;3.47;2.20;;;;;12.80;94044.00;;;;7396603;19;20132;-82
2022/04/11 08:54:18;;;;;;;6.03;2.33;;;;;12.70;94045.00;;;;7394624;19;20145;-79
2022/04/11 08:56:51;;;;;;;3.20;2.40;;;;;12.70;94050.00;;;;7394485;19;20538;-79
2022/04/11 08:59:19;;;;;;;3.33;2.60;;;;;12.20;94044.00;;;;7396136;19;20129;-79
2022/04/11 09:01:47;;;;;;;3.67;2.47;;;;;12.70;94047.00;;;;7396404;19;20587;-80
2022/04/11 09:04:21;;;;;;;3.80;2.70;;;;;13.70;94035.00;;;;7393331;19;20156;-80
2022/04/11 09:06:59;;;;;;;3.40;2.42;;;;;13.80;94055.00;;;;7394934;19;20170;-80
2022/04/11 09:09:45;;;;;;;3.58;2.47;;;;;14.20;94046.00;;;;7393612;19;20189;-81
2022/04/11 09:12:19;;;;;;;3.17;2.40;;;;;13.80;94047.00;;;;7392999;19;20132;-80
2022/04/11 09:15:04;;;;;;;3.53;2.40;;;;;13.50;94044.00;;;;7393772;19;20196;-81
2022/04/11 09:17:41;;;;;;;4.03;2.20;;;;;13.50;94045.00;;;;7392922;19;20204;-83
2022/04/11 09:20:26;;;;;;;3.65;2.40;;;;;13.60;94034.00;;;;7392597;19;20159;-81
2022/04/11 09:22:54;;;;;;;3.38;2.40;;;;;14.00;94037.00;;;;7394116;19;20608;-80
2022/04/11 09:25:30;;;;;;;4.03;2.15;;;;;14.10;94032.00;;;;7393764;19;20147;-80
2022/04/11 09:28:12;;;;;;;2.65;2.05;;;;;13.60;94020.00;;;;7392680;19;20244;-81
2022/04/11 09:30:49;;;;;;;2.28;1.92;;;;;13.60;94030.00;;;;7393274;19;20166;-80
2022/04/11 09:33:19;;;;;;;2.42;2.08;;;;;13.00;94026.00;;;;7391056;19;20147;-80
2022/04/11 09:35:56;;;;;;;2.78;1.98;;;;;12.80;94019.00;;;;7393644;19;20129;-77
2022/04/11 09:38:29;;;;;;;6.03;2.45;;;;;12.80;94029.00;;;;7392212;19;20146;-77
2022/04/11 09:41:03;;;;;;;4.40;2.03;;;;;12.70;94018.00;;;;7392746;19;20161;-79
2022/04/11 09:43:35;;;;;;;3.00;2.10;;;;;13.40;94026.00;;;;7393881;19;20605;-78
2022/04/11 09:46:09;;;;;;;6.85;2.00;;;;;14.30;94019.00;;;;7393271;19;20632;-78
2022/04/11 09:48:37;;;;;;;3.45;2.20;;;;;14.50;94025.00;;;;7392522;19;20668;-80
2022/04/11 09:51:11;;;;;;;3.78;1.80;;;;;15.10;94020.00;;;;7391737;19;20224;-78
2022/04/11 09:53:46;;;;;;;2.30;1.65;;;;;15.20;94021.00;;;;7390369;19;20128;-80
2022/04/11 09:56:15;;;;;;;2.42;1.58;;;;;15.30;94019.00;;;;7393044;19;20459;-80
2022/04/11 09:58:47;;;;;;;2.00;1.70;;;;;15.20;94012.00;;;;7391934;19;20485;-78
2022/04/11 10:01:24;;;;;;;2.30;1.85;;;;;15.10;94017.00;;;;7391851;19;20468;-76
2022/04/11 10:03:53;;;;;;;4.13;1.90;;;;;15.70;94013.00;;;;7391897;19;20153;-77
2022/04/11 10:06:23;;;;;;;4.22;1.60;;;;;15.40;94011.00;;;;7395367;19;20144;-76
2022/04/11 10:09:11;;;;;;;1.92;1.65;;;;;14.20;94022.00;;;;7390742;19;20172;-78
2022/04/11 10:11:45;;;;;;;2.15;1.83;;;;;15.40;94008.00;;;;7391432;19;20129;-78
2022/04/11 10:14:25;;;;;;;3.45;2.30;;;;;15.50;93999.00;;;;7392524;19;20169;-79
2022/04/11 10:17:01;;;;;;;2.10;1.90;;;;;15.60;94002.00;;;;7391159;19;20142;-80
2022/04/11 10:19:42;;;;;;;2.38;1.90;;;;;16.20;94000.00;;;;7391820;19;20133;-79
2022/04/11 10:22:21;;;;;;;7.78;2.22;;;;;16.40;94009.00;;;;7391593;19;20618;-77
2022/04/11 10:25:07;;;;;;;3.05;1.52;;;;;16.70;93999.00;;;;7393156;19;20137;-78
2022/04/11 10:27:37;;;;;;;2.50;2.00;;;;;15.90;94003.00;;;;7391502;19;20600;-76
2022/04/11 10:30:36;;;;;;;2.75;1.98;;;;;15.10;94005.00;;;;7391607;19;20158;-76
2022/04/11 10:33:04;;;;;;;3.90;1.80;;;;;14.90;93996.00;;;;7388370;19;20128;-77
2022/04/11 10:35:44;;;;;;;3.63;2.13;;;;;14.30;94005.00;;;;7392520;19;20167;-79
2022/04/11 10:38:15;;;;;;;5.28;2.42;;;;;14.70;93987.00;;;;7391420;19;20183;-79
2022/04/11 10:40:52;;;;;;;2.08;1.88;;;;;15.20;93986.00;;;;7391233;19;20124;-79
2022/04/11 10:43:40;;;;;;;1.85;1.65;;;;;15.80;93987.00;;;;7390711;19;20606;-78
2022/04/11 10:46:19;;;;;;;2.67;1.95;;;;;16.10;93980.00;;;;7392035;19;20121;-80
2022/04/11 10:48:59;;;;;;;3.80;1.73;;;;;16.10;93981.00;;;;7390716;19;20140;-79
2022/04/11 10:51:35;;;;;;;5.70;2.13;;;;;15.80;93982.00;;;;7391704;19;20579;-79
2022/04/11 10:54:17;;;;;;;3.88;2.10;;;;;16.60;93987.00;;;;7389490;19;20595;-77
2022/04/11 10:57:30;;;;;;;5.45;2.22;;;;;16.90;93980.00;;;;7390331;19;20140;-78
2022/04/11 11:00:20;;;;;;;1.90;1.70;;;;;16.80;93985.00;;;;7390750;19;20121;-78
2022/04/11 11:02:54;;;;;;;3.00;2.17;;;15.70;99.90;17.30;93973.00;;;;7392766;19;20117;-78
2022/04/11 11:05:25;;;;;;;4.50;2.20;;;15.90;99.90;17.60;93979.00;;;;7388927;19;20157;-77
2022/04/11 11:08:11;;;;;;;2.97;2.00;;;15.80;99.90;16.70;93956.00;;;;7387965;19;20614;-79
2022/04/11 11:11:02;;;;;;;3.30;2.22;;;15.50;99.90;17.00;93950.00;;;;7387669;19;20172;-76
2022/04/11 11:13:39;;;;;;;3.83;2.28;;;15.40;99.90;16.30;93961.00;;;;7389351;19;20159;-80
2022/04/11 11:16:14;;;;;;;3.28;1.75;;;14.70;99.90;16.50;93950.00;;;;7391750;19;20128;-80
2022/04/11 11:18:50;;;;;;;4.90;2.03;;;15.10;99.90;17.20;93949.00;;;;7389678;19;20249;-79
2022/04/11 11:21:31;;;;;;;3.95;2.00;;;15.30;99.90;17.50;93955.00;;;;7387491;19;20169;-77
2022/04/11 11:24:04;;;;;;;3.88;2.08;;;15.60;99.90;18.10;93949.00;;;;7388912;19;20145;-78
2022/04/11 11:27:03;;;;;;;4.07;1.92;;;15.90;99.90;18.10;93952.00;;;;7389544;19;20132;-78
2022/04/11 11:29:50;;;;;;;3.47;2.00;;;16.60;99.90;19.10;93937.00;;;;7389036;19;20136;-79
2022/04/11 11:32:30;;;;;;;4.78;1.85;;;17.10;99.90;18.10;93931.00;;;;7389120;19;20608;-79
2022/04/11 11:34:57;;;;;;;3.40;2.10;;;17.30;99.90;17.70;93941.00;;;;7390942;19;20141;-78
2022/04/11 11:37:34;;;;;;;4.82;2.10;;;16.20;99.90;16.60;93930.00;;;;7388943;19;20144;-77
2022/04/11 11:40:04;;;;;;;2.70;2.00;;;15.90;99.90;17.90;93951.00;;;;7390202;19;20168;-76
2022/04/11 11:42:38;;;;;;;2.22;2.03;;;16.10;99.90;18.70;93940.00;;;;7392539;19;20145;-77
2022/04/11 11:45:07;;;;;;;3.80;2.30;;;16.60;99.90;19.60;93935.00;;;;7396502;19;20141;-79
2022/04/11 11:47:36;;;;;;;4.10;2.40;;;17.20;99.90;20.30;93922.00;;;;7395040;19;20164;-78
2022/04/11 11:50:14;;;;;;;3.13;2.03;;;17.60;99.90;20.20;93919.00;;;;7396222;19;20145;-79
2022/04/11 11:52:42;;;;;;;5.00;1.85;;;17.80;99.90;19.00;93924.00;;;;7399520;19;20624;-78
2022/04/11 11:55:15;;;;;;;2.28;1.73;;;17.40;99.90;17.60;93941.00;;;;7397101;19;20471;-77
2022/04/11 11:58:08;;;;;;;3.58;1.80;;;16.80;99.90;17.80;93933.00;;;;7395713;19;20165;-77
2022/04/11 12:00:35;;;;;;;3.10;2.15;;;16.50;99.90;18.60;93914.00;;;;7395467;19;20150;-80
2022/04/11 12:06:06;;;;;;;3.33;1.80;;;16.10;99.90;18.20;93923.00;;;;7395283;19;20623;-81
2022/04/11 12:09:02;;;;;;;2.42;1.90;;;16.10;99.90;18.50;93925.00;;;;7393632;19;20651;-80
2022/04/11 12:11:31;;;;;;;3.70;2.00;;;16.30;99.90;18.20;93909.00;;;;7398329;19;20151;-79
2022/04/11 12:14:12;;;;;;;3.35;1.98;;;16.40;99.90;18.90;93921.00;;;;7393912;19;20136;-78
2022/04/11 12:17:00;;;;;;;5.70;2.10;;;16.90;99.90;18.40;93894.00;;;;7397014;19;20610;-77
2022/04/11 12:19:41;;;;;;;2.70;1.83;;;16.30;99.90;18.50;93902.00;;;;7395305;19;20137;-78
2022/04/11 12:22:14;;;;;;;2.95;2.03;;;16.70;99.90;19.80;93903.00;;;;7395548;19;21197;-80
2022/04/11 12:24:55;;;;;;;3.28;1.90;;;17.70;99.90;20.90;93903.00;;;;7395578;19;20144;-79
2022/04/11 12:27:24;;;;;;;2.50;1.80;;;18.00;99.90;20.40;93906.00;;;;7396688;19;20200;-79
2022/04/11 12:30:00;;;;;;;2.10;1.60;;;17.80;99.90;20.30;93877.00;;;;7395366;19;20141;-80
2022/04/11 12:32:32;;;;;;;1.88;1.70;;;18.10;99.90;19.30;93906.00;;;;7394696;19;20157;-80
2022/04/11 12:35:30;;;;;;;2.13;1.85;;;17.80;99.90;18.60;93881.00;;;;7395132;19;20136;-79
2022/04/11 12:38:07;;;;;;;2.33;2.08;;;17.50;99.90;18.70;93884.00;;;;7395202;19;20133;-78
2022/04/11 12:40:44;;;;;;;3.03;2.30;;;16.70;99.90;19.40;93879.00;;;;7397417;19;20109;-79